createdAt,value
2022-08-05T00:02:27.491Z,3.22
2022-08-05T00:04:56.175Z,3.22
2022-08-05T00:07:59.047Z,3.33
2022-08-05T00:12:56.589Z,3.25
2022-08-05T00:15:55.851Z,2.67
2022-08-05T00:18:19.822Z,3.08
2022-08-05T00:20:48.982Z,3.03
2022-08-05T00:23:15.900Z,3.08
2022-08-05T00:25:45.619Z,3.38
2022-08-05T00:28:13.267Z,2.97
2022-08-05T00:30:41.240Z,3.53
2022-08-05T00:33:15.375Z,3.28
2022-08-05T00:36:16.139Z,3.85
2022-08-05T00:38:44.940Z,2.83
2022-08-05T00:41:12.751Z,2.88
2022-08-05T00:43:46.936Z,3.65
2022-08-05T00:46:16.512Z,3.25
2022-08-05T00:48:50.578Z,3.42
2022-08-05T00:51:50.443Z,3.35
2022-08-05T00:54:06.340Z,3.42
2022-08-05T00:56:32.873Z,3.25
2022-08-05T01:01:48.151Z,3.67
2022-08-05T01:04:14.324Z,3.45
2022-08-05T01:06:43.716Z,3.55
2022-08-05T01:09:17.233Z,3.17
2022-08-05T01:11:49.570Z,3.50
2022-08-05T01:14:51.491Z,3.30
2022-08-05T01:17:44.058Z,3.60
2022-08-05T01:20:31.204Z,3.38
2022-08-05T01:23:23.706Z,3.45
2022-08-05T01:25:56.129Z,3.47
2022-08-05T01:28:28.678Z,3.58
2022-08-05T01:31:07.472Z,3.38
2022-08-05T01:33:42.243Z,3.63
2022-08-05T01:36:18.825Z,3.45
2022-08-05T01:38:49.882Z,3.45
2022-08-05T01:41:22.554Z,3.30
2022-08-05T01:43:53.669Z,3.25
2022-08-05T01:46:42.238Z,3.38
2022-08-05T01:49:22.668Z,3.10
2022-08-05T01:51:54.129Z,3.72
2022-08-05T01:54:25.655Z,4.00
2022-08-05T01:58:11.438Z,3.67
2022-08-05T01:59:47.290Z,3.35
2022-08-05T02:02:15.983Z,3.60
2022-08-05T02:04:46.194Z,3.88
2022-08-05T02:07:22.091Z,4.00
2022-08-05T02:09:50.327Z,3.55
2022-08-05T02:12:38.788Z,4.35
2022-08-05T02:15:13.827Z,3.78
2022-08-05T02:18:32.484Z,3.80
2022-08-05T02:20:47.611Z,4.15
2022-08-05T02:23:20.116Z,4.00
2022-08-05T02:25:50.563Z,4.00
2022-08-05T02:28:29.269Z,3.45
2022-08-05T02:31:01.284Z,3.83
2022-08-05T02:33:35.977Z,3.85
2022-08-05T02:36:13.620Z,3.60
2022-08-05T02:38:45.530Z,3.50
2022-08-05T02:41:22.901Z,3.70
2022-08-05T02:44:02.837Z,3.28
2022-08-05T02:46:35.575Z,3.85
2022-08-05T02:49:13.201Z,3.63
2022-08-05T02:52:04.301Z,3.47
2022-08-05T02:54:36.091Z,3.97
2022-08-05T02:57:10.399Z,4.13
2022-08-05T02:59:54.381Z,4.07
2022-08-05T03:02:27.497Z,3.95
2022-08-05T03:04:55.607Z,3.67
2022-08-05T03:07:59.322Z,3.92
2022-08-05T03:10:10.864Z,4.70
2022-08-05T03:12:40.254Z,4.10
2022-08-05T03:15:09.855Z,4.15
2022-08-05T03:17:41.409Z,3.95
2022-08-05T03:20:10.057Z,4.05
2022-08-05T03:22:37.139Z,3.70
2022-08-05T03:25:33.642Z,3.65
2022-08-05T03:28:11.035Z,4.15
2022-08-05T03:30:45.642Z,4.20
2022-08-05T03:33:16.053Z,4.10
2022-08-05T03:35:58.288Z,3.65
2022-08-05T03:38:32.723Z,4.20
2022-08-05T03:41:08.216Z,3.85
2022-08-05T03:46:29.670Z,4.40
2022-08-05T03:48:59.976Z,4.10
2022-08-05T03:52:37.588Z,4.65
2022-08-05T03:56:04.809Z,4.22
2022-08-05T03:57:41.117Z,3.55
2022-08-05T04:00:41.976Z,3.42
2022-08-05T04:10:24.021Z,4.20
2022-08-05T04:17:03.991Z,3.92
2022-08-05T04:22:55.168Z,4.07
2022-08-05T04:25:56.619Z,4.40
2022-08-05T04:42:36.403Z,3.42
2022-08-05T04:45:54.873Z,5.45
2022-08-05T04:53:11.258Z,3.90
2022-08-05T04:59:21.512Z,3.22
2022-08-05T05:02:35.356Z,3.50
2022-08-05T05:04:38.138Z,3.38
2022-08-05T05:07:05.000Z,3.08
2022-08-05T05:09:37.330Z,2.67
2022-08-05T05:12:04.456Z,3.30
2022-08-05T05:14:32.901Z,3.17
2022-08-05T05:17:03.254Z,3.30
2022-08-05T05:19:36.306Z,3.15
2022-08-05T05:22:03.657Z,3.65
2022-08-05T05:24:57.451Z,2.97
2022-08-05T05:27:45.847Z,3.27
2022-08-05T05:30:30.969Z,3.67
2022-08-05T05:33:13.943Z,3.60
2022-08-05T05:35:47.625Z,3.60
2022-08-05T05:38:15.030Z,3.67
2022-08-05T05:40:51.581Z,3.78
2022-08-05T05:43:57.153Z,3.63
2022-08-05T05:46:17.788Z,3.30
2022-08-05T05:48:47.926Z,3.40
2022-08-05T05:51:19.447Z,4.00
2022-08-05T05:53:57.600Z,4.45
2022-08-05T05:56:32.861Z,4.47
2022-08-05T05:59:06.767Z,3.47
2022-08-05T06:01:37.578Z,3.95
2022-08-05T06:04:11.914Z,4.32
2022-08-05T06:06:47.549Z,4.28
2022-08-05T06:09:26.710Z,4.38
2022-08-05T06:12:03.718Z,3.65
2022-08-05T06:14:31.096Z,4.03
2022-08-05T06:16:58.939Z,4.05
2022-08-05T06:19:34.628Z,4.32
2022-08-05T06:22:06.433Z,4.60
2022-08-05T06:24:34.755Z,4.10
2022-08-05T06:27:01.967Z,3.50
2022-08-05T06:29:52.107Z,4.75
2022-08-05T06:32:25.344Z,4.13
2022-08-05T06:34:56.855Z,4.50
2022-08-05T06:37:56.082Z,4.20
2022-08-05T06:40:12.718Z,4.10
2022-08-05T06:42:40.612Z,3.90
2022-08-05T06:45:08.455Z,4.47
2022-08-05T06:48:36.959Z,4.72
2022-08-05T06:50:22.291Z,4.00
2022-08-05T06:55:25.676Z,4.25
2022-08-05T06:58:03.493Z,3.95
2022-08-05T07:00:41.167Z,3.83
2022-08-05T07:03:08.795Z,4.28
2022-08-05T07:05:37.803Z,4.30
2022-08-05T07:08:10.887Z,3.58
2022-08-05T07:10:38.571Z,3.92
2022-08-05T07:13:56.951Z,4.13
2022-08-05T07:17:56.381Z,3.67
2022-08-05T07:19:44.195Z,3.83
2022-08-05T07:22:04.405Z,3.85
2022-08-05T07:24:31.607Z,3.60
2022-08-05T07:26:58.137Z,4.95
2022-08-05T07:30:28.172Z,4.15
2022-08-05T07:32:12.575Z,3.57
2022-08-05T07:34:42.488Z,3.58
2022-08-05T07:37:09.204Z,3.65
2022-08-05T07:40:25.952Z,3.60
2022-08-05T07:42:34.075Z,3.90
2022-08-05T07:45:03.380Z,3.20
2022-08-05T07:47:41.959Z,2.72
2022-08-05T07:50:09.655Z,3.10
2022-08-05T07:52:40.386Z,3.60
2022-08-05T07:55:16.112Z,3.00
2022-08-05T07:58:01.991Z,3.60
2022-08-05T08:00:29.554Z,4.07
2022-08-05T08:03:15.186Z,3.17
2022-08-05T08:05:47.556Z,3.17
2022-08-05T08:08:16.803Z,3.35
2022-08-05T08:10:48.774Z,3.22
2022-08-05T08:13:15.785Z,2.90
2022-08-05T08:16:35.563Z,3.38
2022-08-05T08:18:35.462Z,2.97
2022-08-05T08:21:09.701Z,3.45
2022-08-05T08:24:01.884Z,3.00
2022-08-05T08:26:29.574Z,3.33
2022-08-05T08:29:02.035Z,3.28
2022-08-05T08:31:43.001Z,2.63
2022-08-05T08:34:09.725Z,2.70
2022-08-05T08:36:48.962Z,3.08
2022-08-05T08:39:23.419Z,3.22
2022-08-05T08:41:59.813Z,3.90
2022-08-05T08:45:20.485Z,3.55
2022-08-05T08:47:22.209Z,3.63
2022-08-05T08:50:30.397Z,2.40
2022-08-05T08:53:03.368Z,2.92
2022-08-05T08:56:04.899Z,2.72
2022-08-05T08:58:26.187Z,2.38
2022-08-05T09:01:07.293Z,2.63
2022-08-05T09:03:40.590Z,2.58
2022-08-05T09:06:13.882Z,2.95
2022-08-05T09:08:45.424Z,2.50
2022-08-05T09:11:13.849Z,3.05
2022-08-05T09:14:09.702Z,3.17
2022-08-05T09:16:28.163Z,2.90
2022-08-05T09:18:55.462Z,3.05
2022-08-05T09:22:21.828Z,2.50
2022-08-05T09:24:13.171Z,2.75
2022-08-05T09:26:46.198Z,2.72
2022-08-05T09:29:18.720Z,2.80
2022-08-05T09:32:46.114Z,2.92
2022-08-05T09:34:50.709Z,2.20
2022-08-05T09:38:17.603Z,2.65
2022-08-05T09:40:09.713Z,2.95
2022-08-05T09:42:41.219Z,2.42
2022-08-05T09:46:04.995Z,2.67
2022-08-05T09:47:56.683Z,2.63
2022-08-05T09:50:38.122Z,2.53
2022-08-05T09:53:13.075Z,2.83
2022-08-05T09:56:04.536Z,1.95
2022-08-05T09:58:31.769Z,2.72
2022-08-05T10:01:13.532Z,2.72
2022-08-05T10:03:58.829Z,1.77
2022-08-05T10:06:27.931Z,1.90
2022-08-05T10:08:55.832Z,1.80
2022-08-05T10:11:22.946Z,1.80
2022-08-05T10:13:49.654Z,2.33
2022-08-05T10:16:33.910Z,1.98
2022-08-05T10:19:09.102Z,1.75
2022-08-05T10:21:40.466Z,2.05
2022-08-05T10:24:11.140Z,2.10
2022-08-05T10:26:52.087Z,1.98
2022-08-05T10:30:05.734Z,2.15
2022-08-05T10:32:51.661Z,2.17
2022-08-05T10:35:00.631Z,1.88
2022-08-05T10:37:44.374Z,1.80
2022-08-05T10:40:38.956Z,1.85
2022-08-05T10:43:51.623Z,1.67
2022-08-05T10:46:23.887Z,1.70
2022-08-05T10:49:09.848Z,1.67
2022-08-05T10:51:53.155Z,1.42
2022-08-05T10:55:05.844Z,1.73
2022-08-05T10:57:34.174Z,1.77
2022-08-05T11:00:19.839Z,1.70
2022-08-05T11:02:59.180Z,1.58
2022-08-05T11:06:03.977Z,1.60
2022-08-05T11:08:37.962Z,1.60
2022-08-05T11:11:44.365Z,1.70
2022-08-05T11:14:57.358Z,2.08
2022-08-05T11:17:58.122Z,1.48
2022-08-05T11:20:38.921Z,1.95
2022-08-05T11:23:33.600Z,1.50
2022-08-05T11:26:10.380Z,1.48
2022-08-05T11:28:43.009Z,1.75
2022-08-05T11:31:10.030Z,1.70
2022-08-05T11:33:46.175Z,1.55
2022-08-05T11:36:34.385Z,1.27
2022-08-05T11:39:04.362Z,1.60
2022-08-05T11:42:02.030Z,1.50
2022-08-05T11:44:52.906Z,1.63
2022-08-05T11:47:15.177Z,1.60
2022-08-05T11:49:50.898Z,1.15
2022-08-05T11:52:29.275Z,1.40
2022-08-05T11:54:57.550Z,1.73
2022-08-05T11:58:08.187Z,1.63
2022-08-05T12:00:29.215Z,1.38
2022-08-05T12:02:57.149Z,1.33
2022-08-05T12:05:36.080Z,1.60
2022-08-05T12:08:10.031Z,1.75
2022-08-05T12:10:45.505Z,1.30
2022-08-05T12:13:28.330Z,1.58
2022-08-05T12:16:14.388Z,2.20
2022-08-05T12:18:42.684Z,1.67
2022-08-05T12:21:23.604Z,1.60
2022-08-05T12:23:54.357Z,1.70
2022-08-05T12:26:21.335Z,1.42
2022-08-05T12:28:50.615Z,1.65
2022-08-05T12:31:23.377Z,1.20
2022-08-05T12:34:01.378Z,1.90
2022-08-05T12:36:30.551Z,1.65
2022-08-05T12:38:59.144Z,1.63
2022-08-05T12:41:34.459Z,1.75
2022-08-05T12:44:11.691Z,1.35
2022-08-05T12:46:45.702Z,1.45
2022-08-05T12:49:19.064Z,1.40
2022-08-05T12:52:13.080Z,1.67
2022-08-05T12:54:40.515Z,1.60
2022-08-05T12:57:09.762Z,1.88
2022-08-05T13:01:58.538Z,1.50
2022-08-05T13:02:40.209Z,1.40
2022-08-05T13:05:08.336Z,2.08
2022-08-05T13:08:00.161Z,1.83
2022-08-05T13:10:28.731Z,1.95
2022-08-05T13:12:57.893Z,1.83
2022-08-05T13:15:41.449Z,1.90
2022-08-05T13:18:20.239Z,1.75
2022-08-05T13:20:49.160Z,1.70
2022-08-05T13:23:18.187Z,1.52
2022-08-05T13:25:51.945Z,1.80
2022-08-05T13:28:27.279Z,1.70
2022-08-05T13:30:53.955Z,1.65
2022-08-05T13:34:21.874Z,1.50
2022-08-05T13:36:09.112Z,1.40
2022-08-05T13:38:41.891Z,2.10
2022-08-05T13:41:09.766Z,1.30
2022-08-05T13:43:45.689Z,1.60
2022-08-05T13:47:02.011Z,1.70
2022-08-05T13:49:10.443Z,1.58
2022-08-05T13:51:41.162Z,1.63
2022-08-05T13:54:11.719Z,1.60
2022-08-05T13:56:39.990Z,1.55
2022-08-05T13:59:20.164Z,1.55
2022-08-05T14:01:57.874Z,1.70
2022-08-05T14:04:51.357Z,1.90
2022-08-05T14:07:55.536Z,1.80
2022-08-05T14:10:28.631Z,1.45
2022-08-05T14:12:56.107Z,1.60
2022-08-05T14:16:04.312Z,2.05
2022-08-05T14:18:14.937Z,1.50
2022-08-05T14:20:49.085Z,1.92
2022-08-05T14:23:24.816Z,1.60
2022-08-05T14:25:58.921Z,1.90
2022-08-05T14:28:29.411Z,1.75
2022-08-05T14:31:00.611Z,2.00
2022-08-05T14:33:56.629Z,1.88
2022-08-05T14:36:14.487Z,1.58
2022-08-05T14:38:42.066Z,1.77
2022-08-05T14:41:08.572Z,1.48
2022-08-05T14:44:02.168Z,1.67
2022-08-05T14:46:28.867Z,1.60
2022-08-05T14:48:58.851Z,1.40
2022-08-05T14:51:30.757Z,1.70
2022-08-05T14:54:27.027Z,1.45
2022-08-05T14:56:46.834Z,2.00
2022-08-05T14:59:14.199Z,1.65
2022-08-05T15:01:47.963Z,1.35
2022-08-05T15:04:16.532Z,1.80
2022-08-05T15:06:49.585Z,1.83
2022-08-05T15:09:50.633Z,2.10
2022-08-05T15:12:05.568Z,1.42
2022-08-05T15:14:34.871Z,1.50
2022-08-05T15:17:09.881Z,1.75
2022-08-05T15:19:49.064Z,1.83
2022-08-05T15:22:15.998Z,2.00
2022-08-05T15:24:44.204Z,1.80
2022-08-05T15:27:11.371Z,1.52
2022-08-05T15:29:41.817Z,2.03
2022-08-05T15:32:08.809Z,1.75
2022-08-05T15:34:35.336Z,1.75
2022-08-05T15:37:06.156Z,1.70
2022-08-05T15:41:00.570Z,1.70
2022-08-05T15:45:08.834Z,1.80
2022-08-05T15:47:36.447Z,1.65
2022-08-05T15:50:03.990Z,1.60
2022-08-05T15:52:54.192Z,1.90
2022-08-05T15:55:19.300Z,1.45
2022-08-05T15:57:51.344Z,1.85
2022-08-05T16:00:32.535Z,1.60
2022-08-05T16:05:32.015Z,1.95
2022-08-05T16:07:58.577Z,1.50
2022-08-05T16:10:27.895Z,1.40
2022-08-05T16:12:56.276Z,1.95
2022-08-05T16:15:23.791Z,1.38
2022-08-05T16:17:57.853Z,1.60
2022-08-05T16:20:25.561Z,1.58
2022-08-05T16:22:54.396Z,1.63
2022-08-05T16:25:20.948Z,1.70
2022-08-05T16:28:04.825Z,1.65
2022-08-05T16:30:34.119Z,2.10
2022-08-05T16:33:01.386Z,2.13
2022-08-05T16:35:32.120Z,1.83
2022-08-05T16:38:16.174Z,2.20
2022-08-05T16:40:48.102Z,1.83
2022-08-05T16:43:25.076Z,2.20
2022-08-05T16:46:06.598Z,2.33
2022-08-05T16:48:37.743Z,2.00
2022-08-05T16:51:09.753Z,2.08
2022-08-05T16:54:04.771Z,2.15
2022-08-05T16:56:26.411Z,2.72
2022-08-05T16:58:53.010Z,1.83
2022-08-05T17:01:20.218Z,1.80
2022-08-05T17:03:47.346Z,1.58
2022-08-05T17:06:16.513Z,1.70
2022-08-05T17:08:53.388Z,1.65
2022-08-05T17:11:25.350Z,1.92
2022-08-05T17:14:00.482Z,1.55
2022-08-05T17:16:36.787Z,1.98
2022-08-05T17:19:07.452Z,1.92
2022-08-05T17:21:37.259Z,1.98
2022-08-05T17:24:30.278Z,2.08
2022-08-05T17:26:56.928Z,1.83
2022-08-05T17:29:33.791Z,2.10
2022-08-05T17:32:16.991Z,1.80
2022-08-05T17:34:44.872Z,1.90
2022-08-05T17:37:36.019Z,1.83
2022-08-05T17:40:01.167Z,2.03
2022-08-05T17:42:31.897Z,2.28
2022-08-05T17:45:17.994Z,1.98
2022-08-05T17:47:52.956Z,1.80
2022-08-05T17:50:27.768Z,2.15
2022-08-05T17:52:58.777Z,1.88
2022-08-05T17:55:27.292Z,2.00
2022-08-05T17:58:02.056Z,1.65
2022-08-05T18:00:29.419Z,1.63
2022-08-05T18:02:56.379Z,2.33
2022-08-05T18:05:23.781Z,1.80
2022-08-05T18:07:54.705Z,2.00
2022-08-05T18:10:23.959Z,1.88
2022-08-05T18:12:51.173Z,1.90
2022-08-05T18:15:17.805Z,2.28
2022-08-05T18:18:00.481Z,1.77
2022-08-05T18:20:32.280Z,1.67
2022-08-05T18:23:09.081Z,2.10
2022-08-05T18:25:39.146Z,2.33
2022-08-05T18:28:06.934Z,2.20
2022-08-05T18:30:39.105Z,1.67
2022-08-05T18:33:07.368Z,2.15
2022-08-05T18:35:49.711Z,2.10
2022-08-05T18:38:26.217Z,2.10
2022-08-05T18:41:58.150Z,2.22
2022-08-05T18:43:42.936Z,2.65
2022-08-05T18:46:18.085Z,2.40
2022-08-05T18:48:51.981Z,2.22
2022-08-05T18:52:06.152Z,2.15
2022-08-05T18:54:30.935Z,2.80
2022-08-05T18:57:00.945Z,3.22
2022-08-05T18:59:43.089Z,2.60
2022-08-05T19:02:27.050Z,2.70
2022-08-05T19:05:02.114Z,3.13
2022-08-05T19:07:45.350Z,2.78
2022-08-05T19:10:13.169Z,2.33
2022-08-05T19:12:40.266Z,2.33
2022-08-05T19:15:24.957Z,2.58
2022-08-05T19:18:08.366Z,2.90
2022-08-05T19:20:36.799Z,2.17
2022-08-05T19:23:07.960Z,2.60
2022-08-05T19:25:41.902Z,2.15
2022-08-05T19:28:10.260Z,2.60
2022-08-05T19:30:36.833Z,2.80
2022-08-05T19:33:05.148Z,2.05
2022-08-05T19:35:55.647Z,2.70
2022-08-05T19:38:26.453Z,2.42
2022-08-05T19:40:53.554Z,2.25
2022-08-05T19:44:03.886Z,2.72
2022-08-05T19:46:06.725Z,2.67
2022-08-05T19:48:53.196Z,2.70
2022-08-05T19:56:15.291Z,2.85
2022-08-05T19:58:19.646Z,2.67
2022-08-05T20:00:42.437Z,3.00
2022-08-05T20:03:09.506Z,3.13
2022-08-05T20:05:50.282Z,2.70
2022-08-05T20:08:18.197Z,2.92
2022-08-05T20:10:44.845Z,2.92
2022-08-05T20:13:17.368Z,3.28
2022-08-05T20:15:52.702Z,3.05
2022-08-05T20:18:33.567Z,3.00
2022-08-05T20:21:05.054Z,3.55
2022-08-05T20:23:39.493Z,3.38
2022-08-05T20:26:17.797Z,3.13
2022-08-05T20:28:46.052Z,3.30
2022-08-05T20:31:13.616Z,3.00
2022-08-05T20:33:43.055Z,3.47
2022-08-05T20:36:10.072Z,3.55
2022-08-05T20:38:37.725Z,3.83
2022-08-05T20:41:08.287Z,3.47
2022-08-05T20:43:59.176Z,3.30
2022-08-05T20:46:25.060Z,3.67
2022-08-05T20:48:52.371Z,3.50
2022-08-05T20:51:18.935Z,3.90
2022-08-05T20:53:56.745Z,3.80
2022-08-05T20:56:28.708Z,4.03
2022-08-05T20:59:04.230Z,4.05
2022-08-05T21:01:42.611Z,4.50
2022-08-05T21:04:12.525Z,3.83
2022-08-05T21:06:45.774Z,3.67
2022-08-05T21:09:14.355Z,4.22
2022-08-05T21:12:06.493Z,3.50
2022-08-05T21:14:28.804Z,3.50
2022-08-05T21:17:01.365Z,3.67
2022-08-05T21:19:29.917Z,3.60
2022-08-05T21:22:14.686Z,3.75
2022-08-05T21:24:44.389Z,3.50
2022-08-05T21:27:16.295Z,4.53
2022-08-05T21:29:43.248Z,3.80
2022-08-05T21:32:19.898Z,3.88
2022-08-05T21:35:08.713Z,4.60
2022-08-05T21:37:33.465Z,5.07
2022-08-05T21:40:05.832Z,5.03
2022-08-05T21:42:44.237Z,5.20
2022-08-05T21:45:13.600Z,5.57
2022-08-05T21:47:56.745Z,4.75
2022-08-05T21:50:26.324Z,6.10
2022-08-05T21:52:53.365Z,5.40
2022-08-05T21:55:43.156Z,6.13
2022-08-05T21:58:10.400Z,5.68
2022-08-05T22:02:19.661Z,5.25
2022-08-05T22:04:46.431Z,5.90
2022-08-05T22:07:15.722Z,6.88
2022-08-05T22:09:45.485Z,7.10
2022-08-05T22:12:12.977Z,7.10
2022-08-05T22:14:41.450Z,8.20
2022-08-05T22:17:09.879Z,8.27
2022-08-05T22:20:02.074Z,8.68
2022-08-05T22:22:27.912Z,9.38
2022-08-05T22:25:18.147Z,9.18
2022-08-05T22:28:09.109Z,9.60
2022-08-05T22:30:55.458Z,9.98
2022-08-05T22:33:58.407Z,9.52
2022-08-05T22:38:42.655Z,9.93
2022-08-05T22:41:10.164Z,11.52
2022-08-05T22:43:38.110Z,11.90
2022-08-05T22:46:13.127Z,12.15
2022-08-05T22:48:47.485Z,11.20
2022-08-05T22:53:50.290Z,12.52
2022-08-05T22:56:17.571Z,11.70
2022-08-05T22:58:57.659Z,11.50
2022-08-05T23:02:03.901Z,12.02
2022-08-05T23:04:12.890Z,12.60
2022-08-05T23:06:41.029Z,11.23
2022-08-05T23:09:14.186Z,13.45
2022-08-05T23:11:54.802Z,12.90
2022-08-05T23:17:37.923Z,12.05
2022-08-05T23:20:24.453Z,11.70
2022-08-05T23:22:55.610Z,11.63
2022-08-05T23:25:51.132Z,11.88
2022-08-05T23:28:09.534Z,12.20
2022-08-05T23:30:40.249Z,12.02
2022-08-05T23:33:15.940Z,12.68
2022-08-05T23:35:48.819Z,12.00
2022-08-05T23:38:16.180Z,14.05
2022-08-05T23:40:49.843Z,12.98
2022-08-05T23:43:25.800Z,12.38
2022-08-05T23:46:20.888Z,12.18
2022-08-05T23:48:59.773Z,13.85
2022-08-05T23:51:53.647Z,13.50
2022-08-05T23:54:30.347Z,12.38
2022-08-05T23:57:04.037Z,12.38
